Time;durP1;ratioP1;P1;durP2;ratioP2;P2;SDS_P1;SDS_P2;PMS_P1;PMS_P2;Temp;Humidity;BMP_temperature;BMP_pressure;BME280_temperature;BME280_humidity;BME280_pressure;Samples;Min_cycle;Max_cycle;Signal;HPM_P1;HPM_P2
2022/12/13 00:01:22;;;;;;;1.58;0.43;;;;;;;;;;5002530;28;20042;-65
2022/12/13 00:03:48;;;;;;;0.50;0.38;;;;;;;;;;5003036;28;20132;-64
2022/12/13 00:06:14;;;;;;;3.13;0.40;;;;;;;;;;5000477;28;20775;-65
2022/12/13 00:08:40;;;;;;;0.22;0.22;;;;;;;;;;5005566;28;20061;-68
2022/12/13 00:11:10;;;;;;;0.35;0.35;;;;;;;;;;5000268;28;20480;-66
2022/12/13 00:13:36;;;;;;;4.72;0.45;;;;;;;;;;4996292;28;20084;-67
2022/12/13 00:16:05;;;;;;;1.85;0.40;;;;;;;;;;4998413;28;20875;-63
2022/12/13 00:18:31;;;;;;;1.25;0.57;;;;;;;;;;5001959;28;20046;-64
2022/12/13 00:20:58;;;;;;;1.05;0.55;;;;;;;;;;5003267;28;20215;-65
2022/12/13 00:23:24;;;;;;;4.10;0.47;;;;;;;;;;5003983;28;20053;-62
2022/12/13 00:25:50;;;;;;;0.50;0.35;;;;;;;;;;5003409;28;20134;-66
2022/12/13 00:28:16;;;;;;;1.33;0.40;;;;;;;;;;5000303;28;20172;-62
2022/12/13 00:30:42;;;;;;;2.47;0.47;;;;;;;;;;4992846;28;20054;-62
2022/12/13 00:33:08;;;;;;;0.88;0.40;;;;;;;;;;4995942;28;20667;-64
2022/12/13 00:35:41;;;;;;;0.60;0.30;;;;;;;;;;5000117;28;20046;-63
2022/12/13 00:38:08;;;;;;;1.00;0.30;;;;;;;;;;5002728;28;20061;-63
2022/12/13 00:40:34;;;;;;;2.40;0.40;;;;;;;;;;4997317;28;20133;-62
2022/12/13 00:43:00;;;;;;;0.70;0.30;;;;;;;;;;4992700;28;20050;-64
2022/12/13 00:45:27;;;;;;;1.02;0.50;;;;;;;;;;5000992;28;20046;-63
2022/12/13 00:47:53;;;;;;;0.60;0.30;;;;;;;;;;4998739;28;20061;-64
2022/12/13 00:50:19;;;;;;;0.20;0.20;;;;;;;;;;4998733;28;20116;-63
2022/12/13 00:52:45;;;;;;;2.45;0.63;;;;;;;;;;5001206;28;20061;-63
2022/12/13 00:55:11;;;;;;;1.65;0.40;;;;;;;;;;4995475;28;20057;-66
2022/12/13 00:57:36;;;;;;;1.30;0.30;;;;;;;;;;4999363;28;20045;-65
2022/12/13 01:00:04;;;;;;;0.75;0.30;;;;;;;;;;4996590;28;20050;-63
2022/12/13 01:02:33;;;;;;;0.98;0.40;;;;;;;;;;4999055;28;20046;-63
2022/12/13 01:04:59;;;;;;;3.25;0.40;;;;;;;;;;4996432;28;20048;-63
2022/12/13 01:07:25;;;;;;;1.95;0.50;;;;;;;;;;4998840;28;20049;-66
2022/12/13 01:09:51;;;;;;;0.88;0.30;;;;;;;;;;4999602;28;20460;-64
2022/12/13 01:12:17;;;;;;;0.77;0.35;;;;;;;;;;5001426;28;20092;-65
2022/12/13 01:14:43;;;;;;;0.90;0.35;;;;;;;;;;4999117;28;20266;-64
2022/12/13 01:17:09;;;;;;;0.75;0.40;;;;;;;;;;4997600;28;20463;-63
2022/12/13 01:19:35;;;;;;;0.45;0.30;;;;;;;;;;4998967;28;20054;-64
2022/12/13 01:22:04;;;;;;;0.88;0.22;;;;;;;;;;4996987;28;22164;-65
2022/12/13 01:24:31;;;;;;;2.15;0.38;;;;;;;;;;5000267;28;20131;-66
2022/12/13 01:26:57;;;;;;;2.20;0.20;;;;;;;;;;5001270;28;20053;-62
2022/12/13 01:29:25;;;;;;;1.92;0.40;;;;;;;;;;4994728;28;20136;-62
2022/12/13 01:31:52;;;;;;;0.13;0.13;;;;;;;;;;4999618;28;20052;-62
2022/12/13 01:34:21;;;;;;;2.25;0.47;;;;;;;;;;5001931;28;20366;-68
2022/12/13 01:36:48;;;;;;;1.65;0.30;;;;;;;;;;4998123;28;20096;-63
2022/12/13 01:39:18;;;;;;;1.13;0.40;;;;;;;;;;4999305;28;20062;-63
2022/12/13 01:41:47;;;;;;;0.30;0.20;;;;;;;;;;4999873;28;20046;-63
2022/12/13 01:44:55;;;;;;;2.85;0.50;;;;;;;;;;4997259;28;20054;-64
2022/12/13 01:47:38;;;;;;;0.90;0.45;;;;;;;;;;4979411;28;20124;-63
2022/12/13 01:50:12;;;;;;;0.77;0.40;;;;;;;;;;4999992;28;20057;-62
2022/12/13 01:52:40;;;;;;;0.35;0.30;;;;;;;;;;4999384;28;20046;-62
2022/12/13 01:55:07;;;;;;;0.20;0.20;;;;;;;;;;4978468;28;20054;-62
2022/12/13 01:57:36;;;;;;;1.13;0.40;;;;;;;;;;4995495;28;20557;-62
2022/12/13 02:00:06;;;;;;;2.67;0.30;;;;;;;;;;5000295;28;20050;-63
2022/12/13 02:02:32;;;;;;;1.25;0.30;;;;;;;;;;4996555;28;20042;-62
2022/12/13 02:05:33;;;;;;;1.00;0.50;;;;;;;;;;5001615;28;20104;-64
2022/12/13 02:08:01;;;;;;;0.65;0.20;;;;;;;;;;4990929;28;20559;-62
2022/12/13 02:10:28;;;;;;;0.90;0.40;;;;;;;;;;5001076;28;20154;-62
2022/12/13 02:12:54;;;;;;;1.63;0.25;;;;;;;;;;4998737;28;20570;-64
2022/12/13 02:15:21;;;;;;;0.63;0.20;;;;;;;;;;4997518;28;20061;-61
2022/12/13 02:18:19;;;;;;;0.28;0.20;;;;;;;;;;4994052;28;20058;-63
2022/12/13 02:21:26;;;;;;;0.65;0.40;;;;;;;;;;4999061;28;20149;-63
2022/12/13 02:24:14;;;;;;;0.10;0.10;;;;;;;;;;4941719;28;20051;-62
2022/12/13 02:26:58;;;;;;;0.20;0.20;;;;;;;;;;4936703;28;20059;-64
2022/12/13 02:29:46;;;;;;;0.73;0.35;;;;;;;;;;4941958;28;20043;-63
2022/12/13 02:32:20;;;;;;;0.20;0.20;;;;;;;;;;4933962;29;20082;-64
2022/12/13 02:34:58;;;;;;;1.10;0.43;;;;;;;;;;4938418;28;20734;-67
2022/12/13 02:37:32;;;;;;;1.30;0.45;;;;;;;;;;4932605;28;20051;-62
2022/12/13 02:40:18;;;;;;;2.60;0.65;;;;;;;;;;4939342;28;20055;-65
2022/12/13 02:43:01;;;;;;;1.83;0.60;;;;;;;;;;4931482;28;20217;-63
2022/12/13 02:45:36;;;;;;;1.90;0.55;;;;;;;;;;4932532;29;20051;-65
2022/12/13 02:48:04;;;;;;;1.80;0.60;;;;;;;;;;4936385;28;20077;-62
2022/12/13 02:50:32;;;;;;;1.00;0.40;;;;;;;;;;4924880;29;20523;-61
2022/12/13 02:52:59;;;;;;;2.50;0.50;;;;;;;;;;4937108;28;20047;-63
2022/12/13 02:55:25;;;;;;;1.30;0.50;;;;;;;;;;4940914;28;20067;-63
2022/12/13 02:57:51;;;;;;;3.67;0.80;;;;;;;;;;4973380;28;20057;-63
2022/12/13 03:00:22;;;;;;;1.45;0.43;;;;;;;;;;5005667;28;20073;-63
2022/12/13 03:03:18;;;;;;;1.65;0.60;;;;;;;;;;4993730;28;20410;-64
2022/12/13 03:09:07;;;;;;;3.88;0.50;;;;;;;;;;5001988;28;20058;-65
2022/12/13 03:15:12;;;;;;;2.42;0.80;;;;;;;;;;4994691;28;20058;-62
2022/12/13 03:17:48;;;;;;;2.25;0.50;;;;;;;;;;4999842;28;20046;-63
2022/12/13 03:20:17;;;;;;;1.77;0.40;;;;;;;;;;5001082;28;20112;-62
2022/12/13 03:22:42;;;;;;;1.13;0.50;;;;;;;;;;4995111;28;20046;-64
2022/12/13 03:25:08;;;;;;;3.70;0.52;;;;;;;;;;5003215;28;20050;-64
2022/12/13 03:27:34;;;;;;;1.55;0.40;;;;;;;;;;5003535;28;20042;-62
2022/12/13 03:30:00;;;;;;;2.35;0.70;;;;;;;;;;5000873;28;20053;-64
2022/12/13 03:32:26;;;;;;;1.52;0.55;;;;;;;;;;5002051;28;20045;-62
2022/12/13 03:34:52;;;;;;;0.75;0.50;;;;;;;;;;5002058;28;20065;-65
2022/12/13 03:37:18;;;;;;;1.65;0.30;;;;;;;;;;5000768;28;20096;-63
2022/12/13 03:39:44;;;;;;;0.85;0.50;;;;;;;;;;5004738;28;20057;-64
2022/12/13 03:42:10;;;;;;;1.30;0.40;;;;;;;;;;4995264;28;20115;-63
2022/12/13 03:44:36;;;;;;;2.45;0.68;;;;;;;;;;5001397;28;20042;-63
2022/12/13 03:47:02;;;;;;;1.42;0.40;;;;;;;;;;4976411;28;20096;-65
2022/12/13 03:49:28;;;;;;;3.65;0.65;;;;;;;;;;5001761;28;20054;-65
2022/12/13 03:51:53;;;;;;;5.05;0.65;;;;;;;;;;5003437;28;20065;-64
2022/12/13 03:54:19;;;;;;;1.35;0.40;;;;;;;;;;4999817;28;20657;-64
2022/12/13 03:56:45;;;;;;;1.27;0.40;;;;;;;;;;4983035;28;20045;-62
2022/12/13 03:59:11;;;;;;;1.45;0.40;;;;;;;;;;4998854;28;20344;-62
2022/12/13 04:01:37;;;;;;;1.40;0.40;;;;;;;;;;5001711;28;20326;-65
2022/12/13 04:04:03;;;;;;;1.00;0.45;;;;;;;;;;4996665;28;20108;-64
2022/12/13 04:06:29;;;;;;;1.98;0.60;;;;;;;;;;5004203;28;20050;-67
2022/12/13 04:08:55;;;;;;;1.30;0.50;;;;;;;;;;5004323;28;20206;-63
2022/12/13 04:14:06;;;;;;;1.90;0.45;;;;;;;;;;5000831;28;20054;-62
2022/12/13 04:16:31;;;;;;;1.42;0.40;;;;;;;;;;5001492;28;20057;-60
2022/12/13 04:18:57;;;;;;;1.27;0.50;;;;;;;;;;5000230;28;20058;-60
2022/12/13 04:21:24;;;;;;;3.05;0.63;;;;;;;;;;4999675;28;20076;-65
2022/12/13 04:23:50;;;;;;;1.30;0.47;;;;;;;;;;5002784;28;20065;-61
2022/12/13 04:26:15;;;;;;;1.85;0.90;;;;;;;;;;4998193;28;20058;-61
2022/12/13 04:28:42;;;;;;;2.13;0.47;;;;;;;;;;5002057;28;20450;-62
2022/12/13 04:31:07;;;;;;;2.53;0.50;;;;;;;;;;5000880;28;20073;-65
2022/12/13 04:33:34;;;;;;;4.05;0.80;;;;;;;;;;4998962;28;20054;-62
2022/12/13 04:35:59;;;;;;;2.38;0.50;;;;;;;;;;4999919;28;20497;-62
2022/12/13 04:38:26;;;;;;;1.65;0.47;;;;;;;;;;4996667;28;20125;-63
2022/12/13 04:40:52;;;;;;;2.40;0.65;;;;;;;;;;5002232;28;20539;-64
2022/12/13 04:43:18;;;;;;;2.60;0.60;;;;;;;;;;4996263;28;20053;-62
2022/12/13 04:45:44;;;;;;;1.20;0.55;;;;;;;;;;5000986;28;21131;-64
2022/12/13 04:48:10;;;;;;;1.58;0.60;;;;;;;;;;4999764;28;20120;-62
2022/12/13 04:50:36;;;;;;;3.03;0.77;;;;;;;;;;4996858;28;20578;-64
2022/12/13 04:53:02;;;;;;;1.60;0.63;;;;;;;;;;4997879;28;20493;-62
2022/12/13 04:55:28;;;;;;;1.77;0.70;;;;;;;;;;5003652;28;20046;-60
2022/12/13 04:57:54;;;;;;;2.35;0.68;;;;;;;;;;4997593;28;20056;-63
2022/12/13 05:00:21;;;;;;;1.38;0.60;;;;;;;;;;4995563;28;20046;-63
2022/12/13 05:02:48;;;;;;;1.95;0.80;;;;;;;;;;4996697;28;20505;-61
2022/12/13 05:05:14;;;;;;;2.20;0.73;;;;;;;;;;5000977;28;20580;-61
2022/12/13 05:07:40;;;;;;;4.45;0.95;;;;;;;;;;4997630;28;21027;-62
2022/12/13 05:10:06;;;;;;;5.88;1.00;;;;;;;;;;4999369;28;20046;-63
2022/12/13 05:12:32;;;;;;;4.95;0.80;;;;;;;;;;5002661;28;20053;-62
2022/12/13 05:14:58;;;;;;;3.70;0.77;;;;;;;;;;5003353;28;20052;-62
2022/12/13 05:17:24;;;;;;;2.80;0.80;;;;;;;;;;5002839;28;20100;-60
2022/12/13 05:19:50;;;;;;;2.90;0.75;;;;;;;;;;5000163;28;20362;-62
2022/12/13 05:22:16;;;;;;;4.97;0.75;;;;;;;;;;5004487;28;20077;-64
2022/12/13 05:24:43;;;;;;;2.83;0.90;;;;;;;;;;5001803;28;20053;-61
2022/12/13 05:27:10;;;;;;;2.83;0.90;;;;;;;;;;4996167;28;20143;-61
2022/12/13 05:29:36;;;;;;;3.40;0.80;;;;;;;;;;4999741;28;20100;-60
2022/12/13 05:32:03;;;;;;;5.30;1.00;;;;;;;;;;4993667;28;20054;-63
2022/12/13 05:34:29;;;;;;;4.55;1.00;;;;;;;;;;4996924;28;20042;-62
2022/12/13 05:36:55;;;;;;;1.27;0.68;;;;;;;;;;4996991;28;20045;-64
2022/12/13 05:39:21;;;;;;;1.33;0.65;;;;;;;;;;5001415;28;20492;-61
2022/12/13 05:41:47;;;;;;;8.82;0.95;;;;;;;;;;4999002;28;20481;-65
2022/12/13 05:44:13;;;;;;;2.90;0.80;;;;;;;;;;5002738;28;20042;-60
2022/12/13 05:46:40;;;;;;;2.10;1.00;;;;;;;;;;4995502;28;20118;-61
2022/12/13 05:49:06;;;;;;;2.08;0.70;;;;;;;;;;4998209;28;20240;-63
2022/12/13 05:51:32;;;;;;;5.22;1.33;;;;;;;;;;5004257;28;20505;-61
2022/12/13 05:53:57;;;;;;;3.00;0.70;;;;;;;;;;5001097;28;20057;-69
2022/12/13 05:56:23;;;;;;;1.63;0.77;;;;;;;;;;5002086;28;20524;-60
2022/12/13 05:58:49;;;;;;;2.42;0.75;;;;;;;;;;4997004;28;20072;-64
2022/12/13 06:01:16;;;;;;;2.67;0.80;;;;;;;;;;4997923;28;20108;-60
2022/12/13 06:03:42;;;;;;;2.28;0.80;;;;;;;;;;4993082;28;20054;-61
2022/12/13 06:06:10;;;;;;;3.25;0.90;;;;;;;;;;4996030;28;20049;-62
2022/12/13 06:08:36;;;;;;;3.75;1.08;;;;;;;;;;4999662;28;20049;-61
2022/12/13 06:11:04;;;;;;;4.88;0.88;;;;;;;;;;4997854;28;20405;-60
2022/12/13 06:13:29;;;;;;;2.55;1.13;;;;;;;;;;4996115;28;20065;-62
2022/12/13 06:16:01;;;;;;;2.22;1.10;;;;;;;;;;4994441;28;20053;-64
2022/12/13 06:18:26;;;;;;;6.63;1.20;;;;;;;;;;4988691;28;20077;-62
2022/12/13 06:20:57;;;;;;;2.75;1.20;;;;;;;;;;4974956;28;20049;-62
2022/12/13 06:23:23;;;;;;;6.72;1.40;;;;;;;;;;4999832;28;20050;-62
2022/12/13 06:25:49;;;;;;;3.47;1.33;;;;;;;;;;4993409;28;20061;-61
2022/12/13 06:28:15;;;;;;;8.15;1.67;;;;;;;;;;5002421;28;20050;-61
2022/12/13 06:30:41;;;;;;;7.85;1.38;;;;;;;;;;4995550;28;20061;-60
2022/12/13 06:33:07;;;;;;;3.40;1.38;;;;;;;;;;5000573;28;20603;-64
2022/12/13 06:35:34;;;;;;;4.78;1.13;;;;;;;;;;5001718;28;20050;-63
2022/12/13 06:37:59;;;;;;;5.18;1.20;;;;;;;;;;5003428;28;20046;-59
2022/12/13 06:40:25;;;;;;;4.63;1.15;;;;;;;;;;5003751;28;20042;-61
2022/12/13 06:42:51;;;;;;;2.53;1.33;;;;;;;;;;5005490;28;20046;-61
2022/12/13 06:45:17;;;;;;;1.85;0.95;;;;;;;;;;5000417;28;20116;-58
2022/12/13 06:47:43;;;;;;;3.53;1.20;;;;;;;;;;5003143;28;20050;-61
2022/12/13 06:50:09;;;;;;;6.10;1.30;;;;;;;;;;5000303;28;20509;-62
2022/12/13 06:52:35;;;;;;;2.65;1.10;;;;;;;;;;5004312;28;20046;-60
2022/12/13 06:55:01;;;;;;;2.30;1.10;;;;;;;;;;4997947;28;20054;-61
2022/12/13 06:57:27;;;;;;;2.45;1.00;;;;;;;;;;5006844;28;20104;-62
2022/12/13 06:59:53;;;;;;;3.63;1.17;;;;;;;;;;4998510;28;20053;-69
2022/12/13 07:02:19;;;;;;;4.68;1.10;;;;;;;;;;5005100;28;20050;-63
2022/12/13 07:04:45;;;;;;;4.63;1.00;;;;;;;;;;5002671;28;20579;-60
2022/12/13 07:07:12;;;;;;;3.90;1.20;;;;;;;;;;5004327;28;20049;-67
2022/12/13 07:09:38;;;;;;;4.82;1.40;;;;;;;;;;5003990;28;20049;-66
2022/12/13 07:12:04;;;;;;;3.30;1.10;;;;;;;;;;5004947;28;20050;-63
2022/12/13 07:14:30;;;;;;;1.77;1.20;;;;;;;;;;4996992;28;20141;-65
2022/12/13 07:16:57;;;;;;;3.35;1.02;;;;;;;;;;5000666;28;20457;-63
2022/12/13 07:19:23;;;;;;;3.88;1.02;;;;;;;;;;5003609;28;20066;-62
2022/12/13 07:21:49;;;;;;;4.07;1.17;;;;;;;;;;4986901;28;20053;-61
2022/12/13 07:24:15;;;;;;;4.60;1.20;;;;;;;;;;4997549;28;20157;-66
2022/12/13 07:26:41;;;;;;;4.00;1.75;;;;;;;;;;4999384;28;20481;-63
2022/12/13 07:29:07;;;;;;;6.22;1.90;;;;;;;;;;5000313;28;20085;-60
2022/12/13 07:31:36;;;;;;;7.72;1.60;;;;;;;;;;4991731;28;20533;-62
2022/12/13 07:34:02;;;;;;;4.55;1.20;;;;;;;;;;4979410;28;20053;-61
2022/12/13 07:36:28;;;;;;;3.97;1.15;;;;;;;;;;4993496;28;20493;-63
2022/12/13 07:38:56;;;;;;;6.07;0.90;;;;;;;;;;4994701;28;20502;-61
2022/12/13 07:41:24;;;;;;;1.48;0.70;;;;;;;;;;5002174;28;20117;-61
2022/12/13 07:43:51;;;;;;;1.02;0.80;;;;;;;;;;5005060;28;20636;-62
2022/12/13 07:46:17;;;;;;;1.50;0.90;;;;;;;;;;4998426;28;20092;-62
2022/12/13 07:48:43;;;;;;;1.67;0.90;;;;;;;;;;4979566;28;20222;-65
2022/12/13 07:51:10;;;;;;;3.85;0.88;;;;;;;;;;4990165;28;20041;-61
2022/12/13 07:53:38;;;;;;;1.70;0.60;;;;;;;;;;5000229;28;20152;-61
2022/12/13 07:56:09;;;;;;;3.45;0.80;;;;;;;;;;5003186;28;20730;-64
2022/12/13 07:58:35;;;;;;;0.63;0.60;;;;;;;;;;5003071;28;20168;-62
2022/12/13 08:01:10;;;;;;;1.20;0.50;;;;;;;;;;5003282;28;20394;-64
2022/12/13 08:03:37;;;;;;;1.08;0.70;;;;;;;;;;4999717;28;20722;-62
2022/12/13 08:06:09;;;;;;;2.60;0.60;;;;;;;;;;5004443;28;20045;-64
2022/12/13 08:08:36;;;;;;;3.22;0.90;;;;;;;;;;4999802;28;20123;-61
2022/12/13 08:11:03;;;;;;;3.30;1.00;;;;;;;;;;4999630;28;20137;-63
2022/12/13 08:13:29;;;;;;;5.18;1.00;;;;;;;;;;4983564;28;20486;-62
2022/12/13 08:16:03;;;;;;;1.88;0.70;;;;;;;;;;4998990;28;20100;-61
2022/12/13 08:18:30;;;;;;;1.73;1.00;;;;;;;;;;5000623;28;20045;-63
2022/12/13 08:21:00;;;;;;;2.28;0.80;;;;;;;;;;4999865;28;20945;-68
2022/12/13 08:23:28;;;;;;;2.88;0.80;;;;;;;;;;4997562;28;20587;-63
2022/12/13 08:25:54;;;;;;;2.00;0.80;;;;;;;;;;4994934;28;20708;-67
2022/12/13 08:28:22;;;;;;;3.15;0.80;;;;;;;;;;5000949;28;20054;-66
2022/12/13 08:30:48;;;;;;;1.30;0.70;;;;;;;;;;4983503;28;20136;-61
2022/12/13 08:33:15;;;;;;;2.83;0.90;;;;;;;;;;5004327;28;20057;-61
2022/12/13 08:35:41;;;;;;;4.43;1.10;;;;;;;;;;5000285;28;20454;-62
2022/12/13 08:38:07;;;;;;;3.13;0.93;;;;;;;;;;5002654;28;20065;-62
2022/12/13 08:40:33;;;;;;;3.78;0.88;;;;;;;;;;5000534;28;20049;-65
2022/12/13 08:43:00;;;;;;;3.28;0.90;;;;;;;;;;5005640;28;20054;-63
2022/12/13 08:45:26;;;;;;;1.23;0.95;;;;;;;;;;5004382;28;20794;-63
2022/12/13 08:47:53;;;;;;;7.13;1.25;;;;;;;;;;4997062;28;20050;-64
2022/12/13 08:50:19;;;;;;;2.25;0.80;;;;;;;;;;4985059;28;20048;-61
2022/12/13 08:52:45;;;;;;;4.55;0.90;;;;;;;;;;4998322;28;20057;-63
2022/12/13 08:55:13;;;;;;;5.40;0.80;;;;;;;;;;4992931;28;20121;-67
2022/12/13 08:57:40;;;;;;;3.53;0.60;;;;;;;;;;4999449;28;20042;-64
2022/12/13 09:00:08;;;;;;;1.70;0.68;;;;;;;;;;4999449;28;20130;-66
2022/12/13 09:02:34;;;;;;;2.90;0.80;;;;;;;;;;5004050;28;20050;-62
2022/12/13 09:05:00;;;;;;;2.47;0.52;;;;;;;;;;4999116;28;20046;-64
2022/12/13 09:07:26;;;;;;;3.13;0.68;;;;;;;;;;5000651;28;20057;-61
2022/12/13 09:09:52;;;;;;;2.03;0.68;;;;;;;;;;4997697;28;20045;-64
2022/12/13 09:12:18;;;;;;;1.08;0.70;;;;;;;;;;4996003;28;20056;-62
2022/12/13 09:14:45;;;;;;;2.42;0.60;;;;;;;;;;4996441;28;20050;-63
2022/12/13 09:17:13;;;;;;;1.20;0.60;;;;;;;;;;5000992;28;20054;-64
2022/12/13 09:19:39;;;;;;;1.27;0.55;;;;;;;;;;4994433;28;20048;-65
2022/12/13 09:22:06;;;;;;;1.42;0.60;;;;;;;;;;4987659;28;20059;-69
2022/12/13 09:24:31;;;;;;;1.08;0.70;;;;;;;;;;4997850;28;20068;-62
2022/12/13 09:26:58;;;;;;;2.53;0.60;;;;;;;;;;4998437;28;20053;-63
2022/12/13 09:29:24;;;;;;;1.20;0.50;;;;;;;;;;4994843;28;20515;-63
2022/12/13 09:31:50;;;;;;;2.08;0.70;;;;;;;;;;5004220;28;20042;-62
2022/12/13 09:34:16;;;;;;;3.47;1.40;;;;;;;;;;5003537;28;20497;-64
2022/12/13 09:36:42;;;;;;;2.47;0.77;;;;;;;;;;5003437;28;20049;-65
2022/12/13 09:39:10;;;;;;;6.00;1.05;;;;;;;;;;5002402;28;20044;-62
2022/12/13 09:41:41;;;;;;;3.00;1.35;;;;;;;;;;4999295;28;20497;-64
2022/12/13 09:44:24;;;;;;;1.40;0.57;;;;;;;;;;5002125;28;20041;-64
2022/12/13 09:46:51;;;;;;;5.30;0.85;;;;;;;;;;5004443;28;20046;-64
2022/12/13 09:49:30;;;;;;;1.30;0.60;;;;;;;;;;5002385;28;20049;-66
2022/12/13 09:51:59;;;;;;;0.90;0.70;;;;;;;;;;5000916;28;20058;-65
2022/12/13 09:54:25;;;;;;;1.20;0.60;;;;;;;;;;5002225;28;20050;-63
2022/12/13 09:56:53;;;;;;;2.05;0.70;;;;;;;;;;5000610;28;20105;-69
2022/12/13 09:59:37;;;;;;;0.93;0.60;;;;;;;;;;5001882;28;20561;-64
2022/12/13 10:02:24;;;;;;;2.45;0.43;;;;;;;;;;5001226;28;20445;-66
2022/12/13 10:04:51;;;;;;;1.63;0.60;;;;;;;;;;5000790;28;20081;-64
2022/12/13 10:07:20;;;;;;;1.58;0.68;;;;;;;;;;4995666;28;20053;-63
2022/12/13 10:09:47;;;;;;;2.42;0.60;;;;;;;;;;4999331;28;20050;-65
2022/12/13 10:12:15;;;;;;;2.30;0.68;;;;;;;;;;5002884;28;20277;-63
2022/12/13 10:14:50;;;;;;;3.90;1.80;;;;;;;;;;5003837;28;20056;-65
2022/12/13 10:17:20;;;;;;;7.75;1.17;;;;;;;;;;5000770;28;20077;-64
2022/12/13 10:19:50;;;;;;;3.13;0.80;;;;;;;;;;4996816;28;20057;-66
2022/12/13 10:22:19;;;;;;;1.10;0.80;;;;;;;;;;4995597;28;20046;-63
2022/12/13 10:25:11;;;;;;;2.80;1.00;;;;;;;;;;4983630;28;20049;-64
2022/12/13 10:27:39;;;;;;;3.08;1.08;;;;;;;;;;4987379;28;20045;-65
2022/12/13 10:30:20;;;;;;;2.67;1.10;;;;;;;;;;4999083;28;20077;-64
2022/12/13 10:32:55;;;;;;;3.22;1.30;;;;;;;;;;5001170;28;20464;-66
2022/12/13 10:35:27;;;;;;;4.30;1.15;;;;;;;;;;4999323;28;20045;-65
2022/12/13 10:37:54;;;;;;;2.70;1.00;;;;;;;;;;4997004;28;20111;-65
2022/12/13 10:40:26;;;;;;;3.22;1.00;;;;;;;;;;5001595;28;20054;-65
2022/12/13 10:43:12;;;;;;;2.83;0.93;;;;;;;;;;5000419;28;20054;-64
2022/12/13 10:45:58;;;;;;;1.42;0.70;;;;;;;;;;4998742;28;20046;-66
2022/12/13 10:48:32;;;;;;;4.63;1.00;;;;;;;;;;5002182;28;20056;-64
2022/12/13 10:51:06;;;;;;;3.13;0.85;;;;;;;;;;4995707;28;20133;-66
2022/12/13 10:53:40;;;;;;;2.10;0.85;;;;;;;;;;5003458;28;20038;-66
2022/12/13 10:56:06;;;;;;;2.13;0.90;;;;;;;;;;5005891;28;20537;-64
2022/12/13 10:58:39;;;;;;;2.17;0.80;;;;;;;;;;4997754;28;20050;-66
2022/12/13 11:01:28;;;;;;;1.30;0.80;;;;;;;;;;5003013;28;20680;-61
2022/12/13 11:03:57;;;;;;;3.58;1.00;;;;;;;;;;4998365;28;20058;-62
2022/12/13 11:06:25;;;;;;;10.23;1.40;;;;;;;;;;4998986;28;20046;-62
2022/12/13 11:08:52;;;;;;;3.83;1.13;;;;;;;;;;5000142;28;20145;-65
2022/12/13 11:11:27;;;;;;;2.42;1.10;;;;;;;;;;4998753;28;20042;-63
2022/12/13 11:14:00;;;;;;;3.25;0.95;;;;;;;;;;5004876;28;20053;-64
2022/12/13 11:16:31;;;;;;;9.98;1.20;;;;;;;;;;5002171;28;20474;-64
2022/12/13 11:19:02;;;;;;;3.90;1.10;;;;;;;;;;5000664;28;20132;-62
2022/12/13 11:21:31;;;;;;;2.25;1.10;;;;;;;;;;5001559;28;20046;-64
2022/12/13 11:24:01;;;;;;;1.95;0.63;;;;;;;;;;4999197;28;20053;-61
2022/12/13 11:26:28;;;;;;;6.55;1.10;;;;;;;;;;4997922;28;20042;-64
2022/12/13 11:29:00;;;;;;;1.63;0.82;;;;;;;;;;4997412;28;20050;-61
2022/12/13 11:32:03;;;;;;;1.20;0.70;;;;;;;;;;5001529;28;20046;-61
2022/12/13 11:34:48;;;;;;;3.28;0.98;;;;;;;;;;4982584;28;20073;-62
2022/12/13 11:37:30;;;;;;;3.83;1.10;;;;;;;;;;4987367;28;20046;-65
2022/12/13 11:40:09;;;;;;;5.65;1.00;;;;;;;;;;4978064;28;20053;-64
2022/12/13 11:42:49;;;;;;;4.15;1.02;;;;;;;;;;4977482;28;20117;-63
2022/12/13 11:45:20;;;;;;;3.53;1.20;;;;;;;;;;4977897;28;20124;-63
2022/12/13 11:48:02;;;;;;;5.68;1.13;;;;;;;;;;4978691;28;20054;-63
2022/12/13 11:50:34;;;;;;;4.43;1.17;;;;;;;;;;4978727;28;20109;-62
2022/12/13 11:53:11;;;;;;;6.55;1.27;;;;;;;;;;4981287;28;20050;-62
2022/12/13 11:55:46;;;;;;;5.20;1.17;;;;;;;;;;4979031;28;20062;-62
2022/12/13 11:58:22;;;;;;;5.15;1.42;;;;;;;;;;4983969;28;20056;-64
2022/12/13 12:00:58;;;;;;;5.03;1.30;;;;;;;;;;4962546;28;20178;-64
2022/12/13 12:03:38;;;;;;;7.32;1.67;;;;;;;;;;4981161;28;20538;-61
2022/12/13 12:06:13;;;;;;;3.65;1.38;;;;;;;;;;4961421;28;20046;-64
2022/12/13 12:08:58;;;;;;;5.32;1.50;;;;;;;;;;4982388;28;20046;-63
2022/12/13 12:11:34;;;;;;;6.63;1.60;;;;;;;;;;4987664;28;20049;-63
2022/12/13 12:14:42;;;;;;;5.57;1.55;;;;;;;;;;4972194;28;20047;-63
2022/12/13 12:17:13;;;;;;;9.48;1.38;;;;;;;;;;4985808;28;20165;-64
2022/12/13 12:19:43;;;;;;;17.75;1.80;;;;;;;;;;4979918;28;20109;-68
2022/12/13 12:22:42;;;;;;;4.57;1.38;;;;;;;;;;4974363;28;20055;-65
2022/12/13 12:25:39;;;;;;;6.80;1.58;;;;;;;;;;4980993;28;20046;-64
2022/12/13 12:28:23;;;;;;;4.22;1.45;;;;;;;;;;4976714;28;20069;-62
2022/12/13 12:31:20;;;;;;;4.63;1.55;;;;;;;;;;4985937;28;20108;-63
2022/12/13 12:34:18;;;;;;;7.95;2.08;;;;;;;;;;4999057;28;20057;-62
2022/12/13 12:37:08;;;;;;;4.57;1.90;;;;;;;;;;4994827;28;20425;-64
2022/12/13 12:40:05;;;;;;;12.25;3.00;;;;;;;;;;5001262;28;20493;-64
2022/12/13 12:42:37;;;;;;;11.32;2.33;;;;;;;;;;4998285;28;20144;-63
2022/12/13 12:45:24;;;;;;;7.18;2.00;;;;;;;;;;5001461;28;20061;-63
2022/12/13 12:48:25;;;;;;;5.20;2.05;;;;;;;;;;4998003;28;20086;-65
2022/12/13 12:51:06;;;;;;;7.88;2.58;;;;;;;;;;4983434;28;20050;-64
2022/12/13 12:53:53;;;;;;;8.82;2.60;;;;;;;;;;5001049;28;20042;-65
2022/12/13 12:56:27;;;;;;;10.15;3.10;;;;;;;;;;5005768;28;20132;-66
2022/12/13 12:59:14;;;;;;;6.85;2.65;;;;;;;;;;5006649;28;20459;-68
2022/12/13 13:02:06;;;;;;;8.82;3.50;;;;;;;;;;5002169;28;20038;-64
2022/12/13 13:04:38;;;;;;;9.60;3.35;;;;;;;;;;4999196;28;20042;-63
2022/12/13 13:07:19;;;;;;;9.15;3.15;;;;;;;;;;4999543;28;20644;-63
2022/12/13 13:09:45;;;;;;;8.32;3.10;;;;;;;;;;4998237;28;20050;-64
2022/12/13 13:12:11;;;;;;;19.80;4.07;;;;;;;;;;4983974;28;20786;-67
2022/12/13 13:14:41;;;;;;;8.98;2.83;;;;;;;;;;5002649;28;20045;-63
2022/12/13 13:17:16;;;;;;;15.10;3.22;;;;;;;;;;4993008;28;20050;-64
2022/12/13 13:20:17;;;;;;;8.75;2.83;;;;;;;;;;5002798;28;20049;-63
2022/12/13 13:22:44;;;;;;;5.45;2.72;;;;;;;;;;4996312;28;20085;-64
2022/12/13 13:25:30;;;;;;;9.65;2.40;;;;;;;;;;4993807;28;20049;-67
2022/12/13 13:28:04;;;;;;;9.48;2.20;;;;;;;;;;4992500;28;20061;-63
2022/12/13 13:30:30;;;;;;;7.30;2.70;;;;;;;;;;4990967;28;20045;-64
2022/12/13 13:32:57;;;;;;;5.20;2.00;;;;;;;;;;4987401;28;20082;-64
2022/12/13 13:35:32;;;;;;;6.03;2.20;;;;;;;;;;4997450;28;20046;-65
2022/12/13 13:37:59;;;;;;;5.45;1.65;;;;;;;;;;5004394;28;20038;-64
2022/12/13 13:40:31;;;;;;;4.10;2.00;;;;;;;;;;5000882;28;20045;-65
2022/12/13 13:43:15;;;;;;;7.78;1.95;;;;;;;;;;5002782;28;20500;-63
2022/12/13 13:46:08;;;;;;;3.30;2.10;;;;;;;;;;5002739;28;20456;-64
2022/12/13 13:49:00;;;;;;;6.32;2.15;;;;;;;;;;5001925;28;20050;-63
2022/12/13 13:51:42;;;;;;;10.73;2.08;;;;;;;;;;4999983;28;20537;-65
2022/12/13 13:54:26;;;;;;;6.88;2.67;;;;;;;;;;5003470;28;20577;-62
2022/12/13 13:57:25;;;;;;;7.18;2.70;;;;;;;;;;5001126;28;20065;-63
2022/12/13 14:00:16;;;;;;;19.65;3.13;;;;;;;;;;4997531;28;20177;-65
2022/12/13 14:03:16;;;;;;;7.07;2.60;;;;;;;;;;4997639;28;20156;-67
2022/12/13 14:06:19;;;;;;;10.32;3.47;;;;;;;;;;4997470;28;20084;-64
2022/12/13 14:09:24;;;;;;;9.30;2.70;;;;;;;;;;4991844;28;20159;-67
2022/12/13 14:12:00;;;;;;;10.48;3.78;;;;;;;;;;4999965;28;20049;-63
2022/12/13 14:14:47;;;;;;;13.52;3.85;;;;;;;;;;5002037;28;20575;-64
2022/12/13 14:17:52;;;;;;;9.65;3.88;;;;;;;;;;4997473;28;20683;-65
2022/12/13 14:20:33;;;;;;;11.73;3.97;;;;;;;;;;4982006;28;20136;-61
2022/12/13 14:23:32;;;;;;;12.82;3.97;;;;;;;;;;5001136;28;20062;-63
2022/12/13 14:26:09;;;;;;;10.32;3.72;;;;;;;;;;4999226;28;20175;-64
2022/12/13 14:28:55;;;;;;;8.93;3.30;;;;;;;;;;4996810;28;20049;-64
2022/12/13 14:31:24;;;;;;;10.27;3.30;;;;;;;;;;4981967;28;20050;-65
2022/12/13 14:33:52;;;;;;;7.20;3.13;;;;;;;;;;5001332;28;20062;-64
2022/12/13 14:36:27;;;;;;;9.80;3.35;;;;;;;;;;5002671;28;20172;-62
2022/12/13 14:39:19;;;;;;;10.32;3.45;;;;;;;;;;5001137;28;20496;-63
2022/12/13 14:41:51;;;;;;;9.20;2.67;;;;;;;;;;4999819;28;20046;-66
2022/12/13 14:44:29;;;;;;;8.07;2.72;;;;;;;;;;5003363;28;20577;-62
2022/12/13 14:46:57;;;;;;;6.05;2.88;;;;;;;;;;5000431;28;20220;-62
2022/12/13 14:49:26;;;;;;;5.03;2.20;;;;;;;;;;5000661;28;20121;-62
2022/12/13 14:52:02;;;;;;;9.57;2.40;;;;;;;;;;4998519;28;20049;-63
2022/12/13 14:54:55;;;;;;;9.18;3.58;;;;;;;;;;5002646;28;20054;-65
2022/12/13 14:57:23;;;;;;;6.47;2.90;;;;;;;;;;5002709;28;20073;-64
2022/12/13 14:59:55;;;;;;;5.97;2.40;;;;;;;;;;5001586;28;20076;-64
2022/12/13 15:02:26;;;;;;;9.70;2.40;;;;;;;;;;5006340;28;20048;-63
2022/12/13 15:05:00;;;;;;;6.78;2.60;;;;;;;;;;5006850;28;20081;-66
2022/12/13 15:07:32;;;;;;;9.93;2.30;;;;;;;;;;5000952;28;20101;-64
2022/12/13 15:10:15;;;;;;;7.60;1.90;;;;;;;;;;4998297;28;20116;-64
2022/12/13 15:12:42;;;;;;;8.70;2.10;;;;;;;;;;5007388;28;20049;-65
2022/12/13 15:15:22;;;;;;;10.73;2.08;;;;;;;;;;5005744;28;20103;-66
2022/12/13 15:17:47;;;;;;;5.85;1.83;;;;;;;;;;5007861;28;20257;-64
2022/12/13 15:20:27;;;;;;;10.07;1.98;;;;;;;;;;5000941;28;20341;-65